F/V Pasiphae 2 — FMFN — position and weather

sailwx.info

Track history (hours):
 
Tides and Currents Weather Stations Pressure Air Temp Water Temp Dewpoint Dewpoint Depression Visibility Wind Speed Wind Dir Waves Ship Positions

F/V Pasiphae 2

Last reported at 2018-Jun-21 18:10 UTC. Time now 2018-Jun-21 21:55 UTC.
Position N 47°22' W 003°51'.

Length 14 m.

Type: Fishing. MMSI: 228224800.

Date/timePositionNaut miles runAvg speedWind from/ knotsBaromVisibWave heightAir tempDewpointWater temp
2018-Jun-21 18:10N 47°22' W 003°51'4 0.4
2018-Jun-21 05:36N 47°25' W 003°56'3 3.7
2018-Jun-21 04:53N 47°27' W 003°55'2 3.7
2018-Jun-21 04:28N 47°29' W 003°55'2 3.4
2018-Jun-21 04:01N 47°30' W 003°54'8 5.3
2018-Jun-21 02:36N 47°34' W 003°44'1 8.0
2018-Jun-21 02:30N 47°34' W 003°43'4 8.5
2018-Jun-21 02:00N 47°37' W 003°38'5 9.5
2018-Jun-21 01:30N 47°40' W 003°32'5 9.7
2018-Jun-21 01:00N 47°41' W 003°25'4 7.3
2018-Jun-21 00:31N 47°44' W 003°22'0 0.0
2018-Jun-21 00:00N 47°44' W 003°22'3 5.3
2018-Jun-20 23:30N 47°41' W 003°24'5 9.0
2018-Jun-20 23:01N 47°40' W 003°30'4 9.0
2018-Jun-20 22:30N 47°38' W 003°36'5 9.1
2018-Jun-20 22:00N 47°35' W 003°41'4 8.9
2018-Jun-20 21:31N 47°33' W 003°47'2 3.1
2018-Jun-20 21:00N 47°32' W 003°49'2 3.9
2018-Jun-20 20:29N 47°31' W 003°51'2 4.0
2018-Jun-20 19:58N 47°30' W 003°54'2 3.8
2018-Jun-20 19:30N 47°29' W 003°55'2 3.9
2018-Jun-20 19:00N 47°27' W 003°55'3 3.2
2018-Jun-20 18:12N 47°24' W 003°56'1 4.0
2018-Jun-20 17:59N 47°23' W 003°56'10 4.0
2018-Jun-20 15:33N 47°14' W 003°58'0 2.0
2018-Jun-20 15:30N 47°14' W 003°58'1 2.5
2018-Jun-20 15:01N 47°13' W 003°59'11 2.5
2018-Jun-20 10:37N 47°20' W 003°48'9 3.6
2018-Jun-20 08:14N 47°13' W 003°55'4 0.7
2018-Jun-20 02:23N 47°11' W 003°59'13 1.6
2018-Jun-19 18:27N 47°22' W 003°51'11 3.4
2018-Jun-19 15:20N 47°13' W 003°60'2 1.7
2018-Jun-19 14:13N 47°14' W 003°57'1 3.8
2018-Jun-19 13:59N 47°14' W 003°56'2 3.5
2018-Jun-19 13:28N 47°12' W 003°54'2 3.8
2018-Jun-19 12:56N 47°12' W 003°51'2 2.8
2018-Jun-19 12:04N 47°14' W 003°51'0 3.8
2018-Jun-19 11:57N 47°15' W 003°52'1 2.1
2018-Jun-19 11:28N 47°15' W 003°53'1 3.0
2018-Jun-19 10:59N 47°14' W 003°55'2 3.8
2018-Jun-19 10:30N 47°12' W 003°53'1 2.6
2018-Jun-19 09:56N 47°13' W 003°52'2 3.7
2018-Jun-19 09:23N 47°14' W 003°55'2 3.5
2018-Jun-19 08:50N 47°13' W 003°54'2 1.9
2018-Jun-19 07:33N 47°15' W 003°54'0 3.0
2018-Jun-19 07:29N 47°15' W 003°54'1 2.7
2018-Jun-19 06:57N 47°13' W 003°55'2 3.5
2018-Jun-19 06:28N 47°12' W 003°53'2 3.5
2018-Jun-19 06:00N 47°13' W 003°51'2 3.5
2018-Jun-19 05:23N 47°14' W 003°48'4 3.5
2018-Jun-19 04:08N 47°18' W 003°45'1 3.6
2018-Jun-19 03:57N 47°18' W 003°45'3 5.5
2018-Jun-19 03:20N 47°21' W 003°41'3 8.8
2018-Jun-19 03:00N 47°23' W 003°38'5 9.2
2018-Jun-19 02:30N 47°27' W 003°34'5 9.5
2018-Jun-19 02:00N 47°30' W 003°30'5 9.5
2018-Jun-19 01:30N 47°34' W 003°25'5 9.1
2018-Jun-19 01:00N 47°38' W 003°23'5 9.4
2018-Jun-19 00:30N 47°43' W 003°22'  
2018-Jun-16 00:43N 47°44' W 003°22'0 0.0
2018-Jun-16 00:30N 47°44' W 003°22'4 8.2
2018-Jun-16 00:00N 47°40' W 003°22'4 8.9
2018-Jun-15 23:30N 47°35' W 003°23'4 8.3
2018-Jun-15 23:00N 47°32' W 003°26'4 8.3
2018-Jun-15 22:30N 47°28' W 003°29'4 8.3
2018-Jun-15 22:00N 47°24' W 003°32'4 8.4
2018-Jun-15 21:29N 47°20' W 003°35'2 3.4
2018-Jun-15 21:00N 47°19' W 003°36'2 0.1
2018-Jun-15 03:37N 47°20' W 003°38'1 9.1
2018-Jun-15 03:31N 47°21' W 003°37'5 9.1
2018-Jun-15 03:00N 47°25' W 003°33'4 9.1
2018-Jun-15 02:30N 47°28' W 003°29'5 9.1
2018-Jun-15 02:01N 47°32' W 003°25'4 8.9
2018-Jun-15 01:31N 47°36' W 003°22'5 9.3
2018-Jun-15 01:00N 47°41' W 003°22'3 6.1
2018-Jun-15 00:31N 47°44' W 003°22'1 1.6
2018-Jun-15 00:00N 47°43' W 003°22'5 9.2
2018-Jun-14 23:30N 47°38' W 003°22'4 8.9
2018-Jun-14 23:01N 47°34' W 003°23'4 8.9
2018-Jun-14 22:30N 47°29' W 003°24'5 9.2
2018-Jun-14 22:00N 47°25' W 003°25'4 8.8
2018-Jun-14 21:30N 47°21' W 003°26'16 1.0
2018-Jun-14 05:18N 47°11' W 003°44'8 0.9
2018-Jun-13 20:05N 47°19' W 003°39'1 3.7
2018-Jun-13 19:52N 47°19' W 003°40'9 1.7
2018-Jun-13 14:42N 47°10' W 003°40'1 3.8
2018-Jun-13 14:27N 47°09' W 003°40'12 1.2
2018-Jun-13 04:13N 47°20' W 003°32'2 9.2
2018-Jun-13 03:58N 47°22' W 003°31'4 9.1
2018-Jun-13 03:30N 47°26' W 003°29'5 9.1
2018-Jun-13 03:00N 47°30' W 003°26'5 9.3
2018-Jun-13 02:30N 47°34' W 003°24'5 9.1
2018-Jun-13 02:00N 47°39' W 003°23'4 8.9
2018-Jun-13 01:30N 47°43' W 003°22'1 1.0
2018-Jun-13 01:00N 47°44' W 003°22'0 0.4
2018-Jun-13 00:30N 47°44' W 003°22'2 3.1
2018-Jun-13 00:00N 47°42' W 003°22'5 9.7
2018-Jun-12 23:30N 47°37' W 003°22'5 9.6
2018-Jun-12 23:00N 47°33' W 003°24'5 9.7
2018-Jun-12 22:30N 47°28' W 003°27'5 9.4
2018-Jun-12 22:00N 47°24' W 003°29'5 9.2
2018-Jun-12 21:30N 47°20' W 003°32'  
Track history (hours):
 
Tides and Currents Weather Stations Pressure Air Temp Water Temp Dewpoint Dewpoint Depression Visibility Wind Speed Wind Dir Waves Ship Positions

F/V Pasiphae 2

Last reported at 2018-Jun-21 18:10 UTC. Time now 2018-Jun-21 21:55 UTC.
Position N 47°22' W 003°51'.

Length 14 m.

Type: Fishing. MMSI: 228224800.

Date/timePositionNaut miles runAvg speedWind from/ knotsBaromVisibWave heightAir tempDewpointWater temp
2018-Jun-21 18:10N 47°22' W 003°51'4 0.4
2018-Jun-21 05:36N 47°25' W 003°56'3 3.7
2018-Jun-21 04:53N 47°27' W 003°55'2 3.7
2018-Jun-21 04:28N 47°29' W 003°55'2 3.4
2018-Jun-21 04:01N 47°30' W 003°54'8 5.3
2018-Jun-21 02:36N 47°34' W 003°44'1 8.0
2018-Jun-21 02:30N 47°34' W 003°43'4 8.5
2018-Jun-21 02:00N 47°37' W 003°38'5 9.5
2018-Jun-21 01:30N 47°40' W 003°32'5 9.7
2018-Jun-21 01:00N 47°41' W 003°25'4 7.3
2018-Jun-21 00:31N 47°44' W 003°22'0 0.0
2018-Jun-21 00:00N 47°44' W 003°22'3 5.3
2018-Jun-20 23:30N 47°41' W 003°24'5 9.0
2018-Jun-20 23:01N 47°40' W 003°30'4 9.0
2018-Jun-20 22:30N 47°38' W 003°36'5 9.1
2018-Jun-20 22:00N 47°35' W 003°41'4 8.9
2018-Jun-20 21:31N 47°33' W 003°47'2 3.1
2018-Jun-20 21:00N 47°32' W 003°49'2 3.9
2018-Jun-20 20:29N 47°31' W 003°51'2 4.0
2018-Jun-20 19:58N 47°30' W 003°54'2 3.8
2018-Jun-20 19:30N 47°29' W 003°55'2 3.9
2018-Jun-20 19:00N 47°27' W 003°55'3 3.2
2018-Jun-20 18:12N 47°24' W 003°56'1 4.0
2018-Jun-20 17:59N 47°23' W 003°56'10 4.0
2018-Jun-20 15:33N 47°14' W 003°58'0 2.0
2018-Jun-20 15:30N 47°14' W 003°58'1 2.5
2018-Jun-20 15:01N 47°13' W 003°59'11 2.5
2018-Jun-20 10:37N 47°20' W 003°48'9 3.6
2018-Jun-20 08:14N 47°13' W 003°55'4 0.7
2018-Jun-20 02:23N 47°11' W 003°59'13 1.6
2018-Jun-19 18:27N 47°22' W 003°51'11 3.4
2018-Jun-19 15:20N 47°13' W 003°60'2 1.7
2018-Jun-19 14:13N 47°14' W 003°57'1 3.8
2018-Jun-19 13:59N 47°14' W 003°56'2 3.5
2018-Jun-19 13:28N 47°12' W 003°54'2 3.8
2018-Jun-19 12:56N 47°12' W 003°51'2 2.8
2018-Jun-19 12:04N 47°14' W 003°51'0 3.8
2018-Jun-19 11:57N 47°15' W 003°52'1 2.1
2018-Jun-19 11:28N 47°15' W 003°53'1 3.0
2018-Jun-19 10:59N 47°14' W 003°55'2 3.8
2018-Jun-19 10:30N 47°12' W 003°53'1 2.6
2018-Jun-19 09:56N 47°13' W 003°52'2 3.7
2018-Jun-19 09:23N 47°14' W 003°55'2 3.5
2018-Jun-19 08:50N 47°13' W 003°54'2 1.9
2018-Jun-19 07:33N 47°15' W 003°54'0 3.0
2018-Jun-19 07:29N 47°15' W 003°54'1 2.7
2018-Jun-19 06:57N 47°13' W 003°55'2 3.5
2018-Jun-19 06:28N 47°12' W 003°53'2 3.5
2018-Jun-19 06:00N 47°13' W 003°51'2 3.5
2018-Jun-19 05:23N 47°14' W 003°48'4 3.5
2018-Jun-19 04:08N 47°18' W 003°45'1 3.6
2018-Jun-19 03:57N 47°18' W 003°45'3 5.5
2018-Jun-19 03:20N 47°21' W 003°41'3 8.8
2018-Jun-19 03:00N 47°23' W 003°38'5 9.2
2018-Jun-19 02:30N 47°27' W 003°34'5 9.5
2018-Jun-19 02:00N 47°30' W 003°30'5 9.5
2018-Jun-19 01:30N 47°34' W 003°25'5 9.1
2018-Jun-19 01:00N 47°38' W 003°23'5 9.4
2018-Jun-19 00:30N 47°43' W 003°22'  
2018-Jun-16 00:43N 47°44' W 003°22'0 0.0
2018-Jun-16 00:30N 47°44' W 003°22'4 8.2
2018-Jun-16 00:00N 47°40' W 003°22'4 8.9
2018-Jun-15 23:30N 47°35' W 003°23'4 8.3
2018-Jun-15 23:00N 47°32' W 003°26'4 8.3
2018-Jun-15 22:30N 47°28' W 003°29'4 8.3
2018-Jun-15 22:00N 47°24' W 003°32'4 8.4
2018-Jun-15 21:29N 47°20' W 003°35'2 3.4
2018-Jun-15 21:00N 47°19' W 003°36'2 0.1
2018-Jun-15 03:37N 47°20' W 003°38'1 9.1
2018-Jun-15 03:31N 47°21' W 003°37'5 9.1
2018-Jun-15 03:00N 47°25' W 003°33'4 9.1
2018-Jun-15 02:30N 47°28' W 003°29'5 9.1
2018-Jun-15 02:01N 47°32' W 003°25'4 8.9
2018-Jun-15 01:31N 47°36' W 003°22'5 9.3
2018-Jun-15 01:00N 47°41' W 003°22'3 6.1
2018-Jun-15 00:31N 47°44' W 003°22'1 1.6
2018-Jun-15 00:00N 47°43' W 003°22'5 9.2
2018-Jun-14 23:30N 47°38' W 003°22'4 8.9
2018-Jun-14 23:01N 47°34' W 003°23'4 8.9
2018-Jun-14 22:30N 47°29' W 003°24'5 9.2
2018-Jun-14 22:00N 47°25' W 003°25'4 8.8
2018-Jun-14 21:30N 47°21' W 003°26'16 1.0
2018-Jun-14 05:18N 47°11' W 003°44'8 0.9
2018-Jun-13 20:05N 47°19' W 003°39'1 3.7
2018-Jun-13 19:52N 47°19' W 003°40'9 1.7
2018-Jun-13 14:42N 47°10' W 003°40'1 3.8
2018-Jun-13 14:27N 47°09' W 003°40'12 1.2
2018-Jun-13 04:13N 47°20' W 003°32'2 9.2
2018-Jun-13 03:58N 47°22' W 003°31'4 9.1
2018-Jun-13 03:30N 47°26' W 003°29'5 9.1
2018-Jun-13 03:00N 47°30' W 003°26'5 9.3
2018-Jun-13 02:30N 47°34' W 003°24'5 9.1
2018-Jun-13 02:00N 47°39' W 003°23'4 8.9
2018-Jun-13 01:30N 47°43' W 003°22'1 1.0
2018-Jun-13 01:00N 47°44' W 003°22'0 0.4
2018-Jun-13 00:30N 47°44' W 003°22'2 3.1
2018-Jun-13 00:00N 47°42' W 003°22'5 9.7
2018-Jun-12 23:30N 47°37' W 003°22'5 9.6
2018-Jun-12 23:00N 47°33' W 003°24'5 9.7
2018-Jun-12 22:30N 47°28' W 003°27'5 9.4
2018-Jun-12 22:00N 47°24' W 003°29'5 9.2
2018-Jun-12 21:30N 47°20' W 003°32'  

Dump ship's entire track history